sensor_id;sensor_type;location;lat;lon;timestamp;temperature;humidity
19258;DHT22;9763;48.780;9.212;2022-12-18T00:01:14;-3.90;68.50
19258;DHT22;9763;48.780;9.212;2022-12-18T00:04:40;-3.90;68.40
19258;DHT22;9763;48.780;9.212;2022-12-18T00:08:05;-3.90;68.00
19258;DHT22;9763;48.780;9.212;2022-12-18T00:11:31;-3.90;68.80
19258;DHT22;9763;48.780;9.212;2022-12-18T00:14:54;-4.00;68.10
19258;DHT22;9763;48.780;9.212;2022-12-18T00:18:18;-4.00;68.10
19258;DHT22;9763;48.780;9.212;2022-12-18T00:21:42;-4.00;68.20
19258;DHT22;9763;48.780;9.212;2022-12-18T00:25:08;-4.00;68.40
19258;DHT22;9763;48.780;9.212;2022-12-18T00:28:32;-4.00;68.40
19258;DHT22;9763;48.780;9.212;2022-12-18T00:31:56;-4.00;68.30
19258;DHT22;9763;48.780;9.212;2022-12-18T00:35:20;-4.00;68.10
19258;DHT22;9763;48.780;9.212;2022-12-18T00:38:44;-4.00;68.00
19258;DHT22;9763;48.780;9.212;2022-12-18T00:42:10;-4.00;68.10
19258;DHT22;9763;48.780;9.212;2022-12-18T00:45:51;-4.00;68.00
19258;DHT22;9763;48.780;9.212;2022-12-18T00:49:16;-4.00;67.90
19258;DHT22;9763;48.780;9.212;2022-12-18T00:52:41;-4.00;68.00
19258;DHT22;9763;48.780;9.212;2022-12-18T00:56:06;-4.00;67.90
19258;DHT22;9763;48.780;9.212;2022-12-18T00:59:31;-4.10;67.90
19258;DHT22;9763;48.780;9.212;2022-12-18T01:02:54;-4.10;67.80
19258;DHT22;9763;48.780;9.212;2022-12-18T01:06:19;-4.10;67.90
19258;DHT22;9763;48.780;9.212;2022-12-18T01:09:43;-4.10;68.00
19258;DHT22;9763;48.780;9.212;2022-12-18T01:13:06;-4.10;68.20
19258;DHT22;9763;48.780;9.212;2022-12-18T01:16:31;-4.10;68.20
19258;DHT22;9763;48.780;9.212;2022-12-18T01:19:55;-4.10;68.20
19258;DHT22;9763;48.780;9.212;2022-12-18T01:23:18;-4.10;68.30
19258;DHT22;9763;48.780;9.212;2022-12-18T01:26:42;-4.10;68.40
19258;DHT22;9763;48.780;9.212;2022-12-18T01:30:06;-4.10;68.50
19258;DHT22;9763;48.780;9.212;2022-12-18T01:33:32;-4.10;68.70
19258;DHT22;9763;48.780;9.212;2022-12-18T01:36:56;-4.00;68.80
19258;DHT22;9763;48.780;9.212;2022-12-18T01:40:20;-4.00;68.80
19258;DHT22;9763;48.780;9.212;2022-12-18T01:43:52;-4.00;68.80
19258;DHT22;9763;48.780;9.212;2022-12-18T01:47:21;-4.00;69.30
19258;DHT22;9763;48.780;9.212;2022-12-18T01:50:49;-4.00;68.80
19258;DHT22;9763;48.780;9.212;2022-12-18T01:54:13;-3.90;68.80
19258;DHT22;9763;48.780;9.212;2022-12-18T01:57:38;-3.90;68.70
19258;DHT22;9763;48.780;9.212;2022-12-18T02:01:03;-3.90;68.60
19258;DHT22;9763;48.780;9.212;2022-12-18T02:04:27;-3.90;68.60
19258;DHT22;9763;48.780;9.212;2022-12-18T02:07:58;-3.90;68.50
19258;DHT22;9763;48.780;9.212;2022-12-18T02:11:40;-4.00;68.40
19258;DHT22;9763;48.780;9.212;2022-12-18T02:15:17;-4.00;68.60
19258;DHT22;9763;48.780;9.212;2022-12-18T02:18:51;-3.90;68.90
19258;DHT22;9763;48.780;9.212;2022-12-18T02:22:28;-3.90;69.10
19258;DHT22;9763;48.780;9.212;2022-12-18T02:26:15;-3.90;69.20
19258;DHT22;9763;48.780;9.212;2022-12-18T02:29:49;-3.90;69.50
19258;DHT22;9763;48.780;9.212;2022-12-18T02:33:21;-3.90;69.50
19258;DHT22;9763;48.780;9.212;2022-12-18T02:36:48;-3.80;69.60
19258;DHT22;9763;48.780;9.212;2022-12-18T02:40:16;-3.80;69.60
19258;DHT22;9763;48.780;9.212;2022-12-18T02:43:46;-3.80;69.50
19258;DHT22;9763;48.780;9.212;2022-12-18T02:47:16;-3.80;69.40
19258;DHT22;9763;48.780;9.212;2022-12-18T02:50:48;-3.70;69.30
19258;DHT22;9763;48.780;9.212;2022-12-18T02:54:38;-3.80;69.10
19258;DHT22;9763;48.780;9.212;2022-12-18T02:58:17;-3.80;69.10
19258;DHT22;9763;48.780;9.212;2022-12-18T03:01:52;-3.80;69.00
19258;DHT22;9763;48.780;9.212;2022-12-18T03:05:24;-3.80;69.00
19258;DHT22;9763;48.780;9.212;2022-12-18T03:08:57;-3.80;69.10
19258;DHT22;9763;48.780;9.212;2022-12-18T03:12:28;-3.80;69.00
19258;DHT22;9763;48.780;9.212;2022-12-18T03:15:56;-3.80;69.20
19258;DHT22;9763;48.780;9.212;2022-12-18T03:19:27;-3.80;69.20
19258;DHT22;9763;48.780;9.212;2022-12-18T03:22:59;-3.80;69.10
19258;DHT22;9763;48.780;9.212;2022-12-18T03:26:28;-3.80;69.10
19258;DHT22;9763;48.780;9.212;2022-12-18T03:30:01;-3.90;68.80
19258;DHT22;9763;48.780;9.212;2022-12-18T03:33:36;-3.90;68.80
19258;DHT22;9763;48.780;9.212;2022-12-18T03:37:06;-3.90;68.70
19258;DHT22;9763;48.780;9.212;2022-12-18T03:40:35;-3.90;68.70
19258;DHT22;9763;48.780;9.212;2022-12-18T03:44:12;-3.90;68.70
19258;DHT22;9763;48.780;9.212;2022-12-18T03:47:50;-3.90;68.60
19258;DHT22;9763;48.780;9.212;2022-12-18T03:51:31;-3.90;68.50
19258;DHT22;9763;48.780;9.212;2022-12-18T03:55:05;-4.00;68.30
19258;DHT22;9763;48.780;9.212;2022-12-18T03:58:33;-4.00;68.20
19258;DHT22;9763;48.780;9.212;2022-12-18T04:02:16;-4.00;68.20
19258;DHT22;9763;48.780;9.212;2022-12-18T04:05:42;-4.00;68.20
19258;DHT22;9763;48.780;9.212;2022-12-18T04:09:09;-4.00;68.10
19258;DHT22;9763;48.780;9.212;2022-12-18T04:12:38;-4.00;68.10
19258;DHT22;9763;48.780;9.212;2022-12-18T04:16:05;-4.10;67.80
19258;DHT22;9763;48.780;9.212;2022-12-18T04:19:32;-4.10;67.90
19258;DHT22;9763;48.780;9.212;2022-12-18T04:22:57;-4.10;67.90
19258;DHT22;9763;48.780;9.212;2022-12-18T04:26:21;-4.10;68.10
19258;DHT22;9763;48.780;9.212;2022-12-18T04:30:00;-4.10;68.30
19258;DHT22;9763;48.780;9.212;2022-12-18T04:33:25;-4.10;68.40
19258;DHT22;9763;48.780;9.212;2022-12-18T04:36:49;-4.10;68.30
19258;DHT22;9763;48.780;9.212;2022-12-18T04:40:13;-4.10;68.40
19258;DHT22;9763;48.780;9.212;2022-12-18T04:43:39;-4.10;68.40
19258;DHT22;9763;48.780;9.212;2022-12-18T04:47:05;-4.00;68.50
19258;DHT22;9763;48.780;9.212;2022-12-18T04:50:30;-4.10;68.40
19258;DHT22;9763;48.780;9.212;2022-12-18T04:53:54;-4.10;68.30
19258;DHT22;9763;48.780;9.212;2022-12-18T04:57:17;-4.10;68.20
19258;DHT22;9763;48.780;9.212;2022-12-18T05:00:41;-4.10;68.20
19258;DHT22;9763;48.780;9.212;2022-12-18T05:04:06;-4.10;68.30
19258;DHT22;9763;48.780;9.212;2022-12-18T05:07:29;-4.10;68.20
19258;DHT22;9763;48.780;9.212;2022-12-18T05:10:58;-4.20;68.20
19258;DHT22;9763;48.780;9.212;2022-12-18T05:14:23;-4.20;68.50
19258;DHT22;9763;48.780;9.212;2022-12-18T05:17:46;-4.20;68.40
19258;DHT22;9763;48.780;9.212;2022-12-18T05:21:11;-4.20;68.30
19258;DHT22;9763;48.780;9.212;2022-12-18T05:24:34;-4.20;68.20
19258;DHT22;9763;48.780;9.212;2022-12-18T05:27:58;-4.20;68.10
19258;DHT22;9763;48.780;9.212;2022-12-18T05:31:21;-4.20;67.90
19258;DHT22;9763;48.780;9.212;2022-12-18T05:34:45;-4.20;67.90
19258;DHT22;9763;48.780;9.212;2022-12-18T05:38:10;-4.20;67.80
19258;DHT22;9763;48.780;9.212;2022-12-18T05:41:34;-4.20;67.80
19258;DHT22;9763;48.780;9.212;2022-12-18T05:44:57;-4.30;67.60
19258;DHT22;9763;48.780;9.212;2022-12-18T05:48:21;-4.30;67.50
19258;DHT22;9763;48.780;9.212;2022-12-18T05:51:45;-4.30;67.50
19258;DHT22;9763;48.780;9.212;2022-12-18T05:55:10;-4.30;67.80
19258;DHT22;9763;48.780;9.212;2022-12-18T05:58:34;-4.40;67.40
19258;DHT22;9763;48.780;9.212;2022-12-18T06:01:57;-4.40;67.30
19258;DHT22;9763;48.780;9.212;2022-12-18T06:05:21;-4.40;67.10
19258;DHT22;9763;48.780;9.212;2022-12-18T06:08:45;-4.40;67.10
19258;DHT22;9763;48.780;9.212;2022-12-18T06:12:10;-4.50;67.10
19258;DHT22;9763;48.780;9.212;2022-12-18T06:15:36;-4.50;66.80
19258;DHT22;9763;48.780;9.212;2022-12-18T06:19:03;-4.50;66.70
19258;DHT22;9763;48.780;9.212;2022-12-18T06:22:30;-4.60;66.50
19258;DHT22;9763;48.780;9.212;2022-12-18T06:25:54;-4.70;66.40
19258;DHT22;9763;48.780;9.212;2022-12-18T06:29:19;-4.70;66.40
19258;DHT22;9763;48.780;9.212;2022-12-18T06:32:43;-4.70;66.50
19258;DHT22;9763;48.780;9.212;2022-12-18T06:36:11;-4.80;66.30
19258;DHT22;9763;48.780;9.212;2022-12-18T06:39:36;-4.80;66.40
19258;DHT22;9763;48.780;9.212;2022-12-18T06:42:59;-4.90;66.40
19258;DHT22;9763;48.780;9.212;2022-12-18T06:46:25;-4.90;66.50
19258;DHT22;9763;48.780;9.212;2022-12-18T06:49:48;-4.90;66.60
19258;DHT22;9763;48.780;9.212;2022-12-18T06:53:12;-4.90;66.50
19258;DHT22;9763;48.780;9.212;2022-12-18T06:56:36;-4.90;66.60
19258;DHT22;9763;48.780;9.212;2022-12-18T07:00:00;-4.90;66.70
19258;DHT22;9763;48.780;9.212;2022-12-18T07:03:26;-4.90;66.90
19258;DHT22;9763;48.780;9.212;2022-12-18T07:06:49;-4.90;66.90
19258;DHT22;9763;48.780;9.212;2022-12-18T07:10:13;-4.90;66.90
19258;DHT22;9763;48.780;9.212;2022-12-18T07:13:36;-4.90;67.00
19258;DHT22;9763;48.780;9.212;2022-12-18T07:17:00;-4.90;67.00
19258;DHT22;9763;48.780;9.212;2022-12-18T07:20:25;-4.90;66.80
19258;DHT22;9763;48.780;9.212;2022-12-18T07:23:49;-4.90;66.80
19258;DHT22;9763;48.780;9.212;2022-12-18T07:27:13;-5.00;66.90
19258;DHT22;9763;48.780;9.212;2022-12-18T07:30:37;-5.00;67.00
19258;DHT22;9763;48.780;9.212;2022-12-18T07:34:01;-5.00;67.30
19258;DHT22;9763;48.780;9.212;2022-12-18T07:37:26;-5.00;67.30
19258;DHT22;9763;48.780;9.212;2022-12-18T07:40:50;-4.90;67.30
19258;DHT22;9763;48.780;9.212;2022-12-18T07:44:13;-4.90;67.50
19258;DHT22;9763;48.780;9.212;2022-12-18T07:47:37;-4.90;67.50
19258;DHT22;9763;48.780;9.212;2022-12-18T07:51:05;-4.90;67.50
19258;DHT22;9763;48.780;9.212;2022-12-18T07:54:30;-4.90;67.60
19258;DHT22;9763;48.780;9.212;2022-12-18T07:57:54;-4.90;67.40
19258;DHT22;9763;48.780;9.212;2022-12-18T08:01:22;-4.90;67.50
19258;DHT22;9763;48.780;9.212;2022-12-18T08:04:46;-4.80;67.70
19258;DHT22;9763;48.780;9.212;2022-12-18T08:08:10;-4.80;67.90
19258;DHT22;9763;48.780;9.212;2022-12-18T08:11:34;-4.80;67.90
19258;DHT22;9763;48.780;9.212;2022-12-18T08:14:58;-4.70;68.10
19258;DHT22;9763;48.780;9.212;2022-12-18T08:18:21;-4.70;68.00
19258;DHT22;9763;48.780;9.212;2022-12-18T08:21:45;-4.70;68.20
19258;DHT22;9763;48.780;9.212;2022-12-18T08:25:09;-4.60;68.50
19258;DHT22;9763;48.780;9.212;2022-12-18T08:28:34;-4.60;68.60
19258;DHT22;9763;48.780;9.212;2022-12-18T08:31:58;-4.60;68.80
19258;DHT22;9763;48.780;9.212;2022-12-18T08:35:21;-4.50;69.40
19258;DHT22;9763;48.780;9.212;2022-12-18T08:38:45;-4.40;70.00
19258;DHT22;9763;48.780;9.212;2022-12-18T08:42:09;-4.30;70.70
19258;DHT22;9763;48.780;9.212;2022-12-18T08:45:52;-4.20;70.90
19258;DHT22;9763;48.780;9.212;2022-12-18T08:49:15;-4.20;70.70
19258;DHT22;9763;48.780;9.212;2022-12-18T08:52:39;-4.10;70.50
19258;DHT22;9763;48.780;9.212;2022-12-18T08:56:02;-4.00;70.50
19258;DHT22;9763;48.780;9.212;2022-12-18T08:59:26;-4.00;71.20
19258;DHT22;9763;48.780;9.212;2022-12-18T09:02:51;-4.00;70.30
19258;DHT22;9763;48.780;9.212;2022-12-18T09:06:15;-3.90;70.40
19258;DHT22;9763;48.780;9.212;2022-12-18T09:09:40;-3.90;70.40
19258;DHT22;9763;48.780;9.212;2022-12-18T09:13:04;-3.90;70.20
19258;DHT22;9763;48.780;9.212;2022-12-18T09:16:28;-3.90;70.10
19258;DHT22;9763;48.780;9.212;2022-12-18T09:19:55;-3.90;70.20
19258;DHT22;9763;48.780;9.212;2022-12-18T09:23:18;-4.00;70.10
19258;DHT22;9763;48.780;9.212;2022-12-18T09:26:43;-4.00;70.30
19258;DHT22;9763;48.780;9.212;2022-12-18T09:30:09;-4.00;70.60
19258;DHT22;9763;48.780;9.212;2022-12-18T09:33:33;-4.00;70.50
19258;DHT22;9763;48.780;9.212;2022-12-18T09:36:59;-4.00;70.60
19258;DHT22;9763;48.780;9.212;2022-12-18T09:40:24;-4.00;70.70
19258;DHT22;9763;48.780;9.212;2022-12-18T09:43:53;-4.00;70.90
19258;DHT22;9763;48.780;9.212;2022-12-18T09:47:27;-4.00;71.10
19258;DHT22;9763;48.780;9.212;2022-12-18T09:50:57;-3.90;71.20
19258;DHT22;9763;48.780;9.212;2022-12-18T09:54:32;-3.90;71.30
19258;DHT22;9763;48.780;9.212;2022-12-18T09:58:10;-3.80;71.60
19258;DHT22;9763;48.780;9.212;2022-12-18T10:01:38;-3.80;71.60
19258;DHT22;9763;48.780;9.212;2022-12-18T10:05:07;-3.80;71.60
19258;DHT22;9763;48.780;9.212;2022-12-18T10:08:41;-3.70;72.00
19258;DHT22;9763;48.780;9.212;2022-12-18T10:12:17;-3.70;72.20
19258;DHT22;9763;48.780;9.212;2022-12-18T10:15:58;-3.60;72.50
19258;DHT22;9763;48.780;9.212;2022-12-18T10:19:38;-3.50;72.80
19258;DHT22;9763;48.780;9.212;2022-12-18T10:23:15;-3.40;73.00
19258;DHT22;9763;48.780;9.212;2022-12-18T10:26:51;-3.30;73.10
19258;DHT22;9763;48.780;9.212;2022-12-18T10:30:20;-3.20;73.40
19258;DHT22;9763;48.780;9.212;2022-12-18T10:33:45;-3.10;73.50
19258;DHT22;9763;48.780;9.212;2022-12-18T10:37:14;-3.00;73.60
19258;DHT22;9763;48.780;9.212;2022-12-18T10:40:49;-2.90;74.00
19258;DHT22;9763;48.780;9.212;2022-12-18T10:44:17;-2.70;76.10
19258;DHT22;9763;48.780;9.212;2022-12-18T10:47:46;-2.20;79.20
19258;DHT22;9763;48.780;9.212;2022-12-18T10:51:19;-1.50;82.80
19258;DHT22;9763;48.780;9.212;2022-12-18T10:54:50;-0.60;85.80
19258;DHT22;9763;48.780;9.212;2022-12-18T10:58:22;0.20;87.10
19258;DHT22;9763;48.780;9.212;2022-12-18T11:01:50;0.90;86.80
19258;DHT22;9763;48.780;9.212;2022-12-18T11:05:27;1.60;85.70
19258;DHT22;9763;48.780;9.212;2022-12-18T11:08:58;2.10;82.30
19258;DHT22;9763;48.780;9.212;2022-12-18T11:12:28;2.30;78.80
19258;DHT22;9763;48.780;9.212;2022-12-18T11:15:52;2.30;76.80
19258;DHT22;9763;48.780;9.212;2022-12-18T11:19:34;2.20;75.70
19258;DHT22;9763;48.780;9.212;2022-12-18T11:23:03;4.50;77.30
19258;DHT22;9763;48.780;9.212;2022-12-18T11:26:34;1.80;74.50
19258;DHT22;9763;48.780;9.212;2022-12-18T11:30:08;1.60;74.50
19258;DHT22;9763;48.780;9.212;2022-12-18T11:33:45;1.10;74.10
19258;DHT22;9763;48.780;9.212;2022-12-18T11:37:33;1.20;74.70
19258;DHT22;9763;48.780;9.212;2022-12-18T11:41:04;1.10;75.00
19258;DHT22;9763;48.780;9.212;2022-12-18T11:44:42;0.90;75.10
19258;DHT22;9763;48.780;9.212;2022-12-18T11:48:16;0.80;75.30
19258;DHT22;9763;48.780;9.212;2022-12-18T11:51:49;0.70;75.50
19258;DHT22;9763;48.780;9.212;2022-12-18T11:55:21;0.60;75.80
19258;DHT22;9763;48.780;9.212;2022-12-18T11:58:59;0.50;76.00
19258;DHT22;9763;48.780;9.212;2022-12-18T12:02:52;0.50;76.50
19258;DHT22;9763;48.780;9.212;2022-12-18T12:06:34;0.50;76.90
19258;DHT22;9763;48.780;9.212;2022-12-18T12:10:25;0.50;77.20
19258;DHT22;9763;48.780;9.212;2022-12-18T12:14:17;0.50;77.10
19258;DHT22;9763;48.780;9.212;2022-12-18T12:17:55;0.50;77.10
19258;DHT22;9763;48.780;9.212;2022-12-18T12:21:37;0.50;77.20
19258;DHT22;9763;48.780;9.212;2022-12-18T12:25:14;0.50;77.00
19258;DHT22;9763;48.780;9.212;2022-12-18T12:28:58;0.50;77.60
19258;DHT22;9763;48.780;9.212;2022-12-18T12:32:45;0.50;77.70
19258;DHT22;9763;48.780;9.212;2022-12-18T12:36:23;0.50;77.80
19258;DHT22;9763;48.780;9.212;2022-12-18T12:39:55;0.60;78.10
19258;DHT22;9763;48.780;9.212;2022-12-18T12:43:31;2.90;80.60
19258;DHT22;9763;48.780;9.212;2022-12-18T12:47:15;0.60;78.40
19258;DHT22;9763;48.780;9.212;2022-12-18T12:50:43;2.10;79.80
19258;DHT22;9763;48.780;9.212;2022-12-18T12:54:14;0.70;78.40
19258;DHT22;9763;48.780;9.212;2022-12-18T12:57:45;0.80;78.50
19258;DHT22;9763;48.780;9.212;2022-12-18T13:01:25;0.80;78.40
19258;DHT22;9763;48.780;9.212;2022-12-18T13:05:01;0.90;78.60
19258;DHT22;9763;48.780;9.212;2022-12-18T13:08:52;0.90;79.30
19258;DHT22;9763;48.780;9.212;2022-12-18T13:12:18;1.00;78.70
19258;DHT22;9763;48.780;9.212;2022-12-18T13:16:05;1.00;78.80
19258;DHT22;9763;48.780;9.212;2022-12-18T13:19:32;1.10;79.00
19258;DHT22;9763;48.780;9.212;2022-12-18T13:22:57;1.10;79.00
19258;DHT22;9763;48.780;9.212;2022-12-18T13:26:39;1.20;79.00
19258;DHT22;9763;48.780;9.212;2022-12-18T13:34:15;1.20;78.30
19258;DHT22;9763;48.780;9.212;2022-12-18T13:37:53;1.20;78.30
19258;DHT22;9763;48.780;9.212;2022-12-18T13:41:23;1.20;78.20
19258;DHT22;9763;48.780;9.212;2022-12-18T13:44:49;1.20;79.00
19258;DHT22;9763;48.780;9.212;2022-12-18T13:48:19;1.20;78.00
19258;DHT22;9763;48.780;9.212;2022-12-18T13:51:48;1.20;78.00
19258;DHT22;9763;48.780;9.212;2022-12-18T13:55:16;1.20;78.00
19258;DHT22;9763;48.780;9.212;2022-12-18T13:58:42;1.20;78.10
19258;DHT22;9763;48.780;9.212;2022-12-18T14:02:13;1.20;77.80
19258;DHT22;9763;48.780;9.212;2022-12-18T14:05:40;1.20;77.80
19258;DHT22;9763;48.780;9.212;2022-12-18T14:09:13;1.50;78.00
19258;DHT22;9763;48.780;9.212;2022-12-18T14:12:45;1.20;77.70
19258;DHT22;9763;48.780;9.212;2022-12-18T14:16:24;1.20;77.60
19258;DHT22;9763;48.780;9.212;2022-12-18T14:19:50;1.20;77.50
19258;DHT22;9763;48.780;9.212;2022-12-18T14:23:34;1.30;77.80
19258;DHT22;9763;48.780;9.212;2022-12-18T14:27:17;1.10;77.40
19258;DHT22;9763;48.780;9.212;2022-12-18T14:30:45;1.10;77.40
19258;DHT22;9763;48.780;9.212;2022-12-18T14:34:15;1.10;77.50
19258;DHT22;9763;48.780;9.212;2022-12-18T14:37:39;1.00;77.20
19258;DHT22;9763;48.780;9.212;2022-12-18T14:41:05;1.00;77.10
19258;DHT22;9763;48.780;9.212;2022-12-18T14:44:33;1.00;77.10
19258;DHT22;9763;48.780;9.212;2022-12-18T14:48:19;0.90;76.90
19258;DHT22;9763;48.780;9.212;2022-12-18T14:51:47;0.80;76.80
19258;DHT22;9763;48.780;9.212;2022-12-18T14:55:15;0.80;76.70
19258;DHT22;9763;48.780;9.212;2022-12-18T14:58:44;0.70;76.60
19258;DHT22;9763;48.780;9.212;2022-12-18T15:02:17;0.70;76.60
19258;DHT22;9763;48.780;9.212;2022-12-18T15:05:44;0.60;76.50
19258;DHT22;9763;48.780;9.212;2022-12-18T15:09:22;0.50;76.30
19258;DHT22;9763;48.780;9.212;2022-12-18T15:12:49;0.50;76.40
19258;DHT22;9763;48.780;9.212;2022-12-18T15:16:14;0.50;76.40
19258;DHT22;9763;48.780;9.212;2022-12-18T15:19:41;0.40;76.40
19258;DHT22;9763;48.780;9.212;2022-12-18T15:23:14;0.30;76.40
19258;DHT22;9763;48.780;9.212;2022-12-18T15:26:39;0.30;76.40
19258;DHT22;9763;48.780;9.212;2022-12-18T15:30:18;0.20;76.40
19258;DHT22;9763;48.780;9.212;2022-12-18T15:34:00;0.20;76.60
19258;DHT22;9763;48.780;9.212;2022-12-18T15:37:36;0.10;76.60
19258;DHT22;9763;48.780;9.212;2022-12-18T15:41:01;0.10;76.50
19258;DHT22;9763;48.780;9.212;2022-12-18T15:44:29;0.00;76.50
19258;DHT22;9763;48.780;9.212;2022-12-18T15:47:53;0.00;76.40
19258;DHT22;9763;48.780;9.212;2022-12-18T15:51:20;0.00;76.20
19258;DHT22;9763;48.780;9.212;2022-12-18T15:54:45;0.00;76.50
19258;DHT22;9763;48.780;9.212;2022-12-18T15:58:27;-0.10;76.20
19258;DHT22;9763;48.780;9.212;2022-12-18T16:01:51;-0.10;76.20
19258;DHT22;9763;48.780;9.212;2022-12-18T16:05:17;-0.10;76.20
19258;DHT22;9763;48.780;9.212;2022-12-18T16:08:43;-0.10;76.20
19258;DHT22;9763;48.780;9.212;2022-12-18T16:12:15;-0.20;76.00
19258;DHT22;9763;48.780;9.212;2022-12-18T16:15:41;-0.20;76.20
19258;DHT22;9763;48.780;9.212;2022-12-18T16:19:05;-0.20;76.20
19258;DHT22;9763;48.780;9.212;2022-12-18T16:22:29;-0.30;76.10
19258;DHT22;9763;48.780;9.212;2022-12-18T16:25:55;-0.30;76.20
19258;DHT22;9763;48.780;9.212;2022-12-18T16:29:19;-0.30;76.30
19258;DHT22;9763;48.780;9.212;2022-12-18T16:33:15;-0.40;76.30
19258;DHT22;9763;48.780;9.212;2022-12-18T16:36:39;-0.40;76.40
19258;DHT22;9763;48.780;9.212;2022-12-18T16:40:03;-0.40;76.50
19258;DHT22;9763;48.780;9.212;2022-12-18T16:43:32;-0.40;76.60
19258;DHT22;9763;48.780;9.212;2022-12-18T16:46:56;-0.30;76.70
19258;DHT22;9763;48.780;9.212;2022-12-18T16:50:23;-0.30;76.60
19258;DHT22;9763;48.780;9.212;2022-12-18T16:53:47;-0.30;76.50
19258;DHT22;9763;48.780;9.212;2022-12-18T16:57:13;-0.30;76.40
19258;DHT22;9763;48.780;9.212;2022-12-18T17:00:41;-0.30;76.40
19258;DHT22;9763;48.780;9.212;2022-12-18T17:04:05;-0.30;76.10
19258;DHT22;9763;48.780;9.212;2022-12-18T17:07:29;-0.30;76.00
19258;DHT22;9763;48.780;9.212;2022-12-18T17:10:53;-0.30;76.10
19258;DHT22;9763;48.780;9.212;2022-12-18T17:14:19;-0.30;76.20
19258;DHT22;9763;48.780;9.212;2022-12-18T17:17:45;-0.30;76.30
19258;DHT22;9763;48.780;9.212;2022-12-18T17:21:10;-0.30;76.30
19258;DHT22;9763;48.780;9.212;2022-12-18T17:24:35;-0.20;76.70
19258;DHT22;9763;48.780;9.212;2022-12-18T17:27:59;-0.20;76.60
19258;DHT22;9763;48.780;9.212;2022-12-18T17:31:24;-0.20;76.70
19258;DHT22;9763;48.780;9.212;2022-12-18T17:34:50;-0.10;76.90
19258;DHT22;9763;48.780;9.212;2022-12-18T17:38:13;-0.10;76.80
19258;DHT22;9763;48.780;9.212;2022-12-18T17:41:37;-0.10;76.90
19258;DHT22;9763;48.780;9.212;2022-12-18T17:45:01;-0.10;76.80
19258;DHT22;9763;48.780;9.212;2022-12-18T17:48:25;0.00;76.90
19258;DHT22;9763;48.780;9.212;2022-12-18T17:51:50;0.00;76.80
19258;DHT22;9763;48.780;9.212;2022-12-18T17:55:14;0.00;76.80
19258;DHT22;9763;48.780;9.212;2022-12-18T17:58:39;0.00;76.80
19258;DHT22;9763;48.780;9.212;2022-12-18T18:02:03;0.10;76.90
19258;DHT22;9763;48.780;9.212;2022-12-18T18:05:27;0.10;76.70
19258;DHT22;9763;48.780;9.212;2022-12-18T18:08:52;0.10;76.80
19258;DHT22;9763;48.780;9.212;2022-12-18T18:12:17;0.10;76.80
19258;DHT22;9763;48.780;9.212;2022-12-18T18:15:59;0.10;76.70
19258;DHT22;9763;48.780;9.212;2022-12-18T18:19:24;0.10;76.70
19258;DHT22;9763;48.780;9.212;2022-12-18T18:22:48;0.00;76.60
19258;DHT22;9763;48.780;9.212;2022-12-18T18:26:13;0.10;76.70
19258;DHT22;9763;48.780;9.212;2022-12-18T18:29:37;0.10;76.90
19258;DHT22;9763;48.780;9.212;2022-12-18T18:33:01;0.00;76.80
19258;DHT22;9763;48.780;9.212;2022-12-18T18:36:32;0.00;76.80
19258;DHT22;9763;48.780;9.212;2022-12-18T18:39:56;0.00;76.70
19258;DHT22;9763;48.780;9.212;2022-12-18T18:43:24;0.00;76.80
19258;DHT22;9763;48.780;9.212;2022-12-18T18:46:47;0.00;76.70
19258;DHT22;9763;48.780;9.212;2022-12-18T18:50:15;0.00;76.80
19258;DHT22;9763;48.780;9.212;2022-12-18T18:53:41;0.10;77.60
19258;DHT22;9763;48.780;9.212;2022-12-18T18:57:06;0.00;76.80
19258;DHT22;9763;48.780;9.212;2022-12-18T19:00:56;0.10;76.80
19258;DHT22;9763;48.780;9.212;2022-12-18T19:04:21;0.10;77.60
19258;DHT22;9763;48.780;9.212;2022-12-18T19:07:47;0.10;76.70
19258;DHT22;9763;48.780;9.212;2022-12-18T19:11:11;1.10;77.70
19258;DHT22;9763;48.780;9.212;2022-12-18T19:14:55;0.10;76.70
19258;DHT22;9763;48.780;9.212;2022-12-18T19:18:21;0.10;76.60
19258;DHT22;9763;48.780;9.212;2022-12-18T19:21:45;0.10;76.80
19258;DHT22;9763;48.780;9.212;2022-12-18T19:25:09;0.10;76.70
19258;DHT22;9763;48.780;9.212;2022-12-18T19:28:33;0.10;76.70
19258;DHT22;9763;48.780;9.212;2022-12-18T19:31:57;0.30;76.90
19258;DHT22;9763;48.780;9.212;2022-12-18T19:35:22;0.10;76.50
19258;DHT22;9763;48.780;9.212;2022-12-18T19:38:47;0.10;76.50
19258;DHT22;9763;48.780;9.212;2022-12-18T19:42:11;0.10;76.50
19258;DHT22;9763;48.780;9.212;2022-12-18T19:45:35;0.10;76.30
19258;DHT22;9763;48.780;9.212;2022-12-18T19:48:59;0.10;76.20
19258;DHT22;9763;48.780;9.212;2022-12-18T19:52:25;0.10;76.20
19258;DHT22;9763;48.780;9.212;2022-12-18T19:55:48;0.00;76.00
19258;DHT22;9763;48.780;9.212;2022-12-18T19:59:12;0.00;76.20
19258;DHT22;9763;48.780;9.212;2022-12-18T20:02:36;0.00;76.40
19258;DHT22;9763;48.780;9.212;2022-12-18T20:06:07;0.00;76.50
19258;DHT22;9763;48.780;9.212;2022-12-18T20:09:33;0.00;76.80
19258;DHT22;9763;48.780;9.212;2022-12-18T20:12:58;0.10;76.80
19258;DHT22;9763;48.780;9.212;2022-12-18T20:16:22;0.10;76.80
19258;DHT22;9763;48.780;9.212;2022-12-18T20:19:46;0.20;76.90
19258;DHT22;9763;48.780;9.212;2022-12-18T20:23:10;0.20;76.90
19258;DHT22;9763;48.780;9.212;2022-12-18T20:26:35;0.20;76.80
19258;DHT22;9763;48.780;9.212;2022-12-18T20:29:58;0.20;76.80
19258;DHT22;9763;48.780;9.212;2022-12-18T20:33:22;0.20;76.50
19258;DHT22;9763;48.780;9.212;2022-12-18T20:36:45;0.20;76.30
19258;DHT22;9763;48.780;9.212;2022-12-18T20:40:10;0.20;76.30
19258;DHT22;9763;48.780;9.212;2022-12-18T20:43:36;0.20;76.20
19258;DHT22;9763;48.780;9.212;2022-12-18T20:47:01;0.20;76.20
19258;DHT22;9763;48.780;9.212;2022-12-18T20:50:29;0.10;76.10
19258;DHT22;9763;48.780;9.212;2022-12-18T20:53:54;0.10;76.40
19258;DHT22;9763;48.780;9.212;2022-12-18T20:57:18;0.10;76.50
19258;DHT22;9763;48.780;9.212;2022-12-18T21:00:42;0.10;76.60
19258;DHT22;9763;48.780;9.212;2022-12-18T21:04:06;0.20;76.70
19258;DHT22;9763;48.780;9.212;2022-12-18T21:07:30;0.20;76.80
19258;DHT22;9763;48.780;9.212;2022-12-18T21:10:54;0.20;76.90
19258;DHT22;9763;48.780;9.212;2022-12-18T21:14:20;0.20;76.80
19258;DHT22;9763;48.780;9.212;2022-12-18T21:17:46;0.20;76.80
19258;DHT22;9763;48.780;9.212;2022-12-18T21:21:10;0.30;76.90
19258;DHT22;9763;48.780;9.212;2022-12-18T21:24:34;0.30;77.00
19258;DHT22;9763;48.780;9.212;2022-12-18T21:27:57;0.30;76.90
19258;DHT22;9763;48.780;9.212;2022-12-18T21:31:22;0.30;76.80
19258;DHT22;9763;48.780;9.212;2022-12-18T21:34:48;0.40;76.90
19258;DHT22;9763;48.780;9.212;2022-12-18T21:38:13;0.30;76.70
19258;DHT22;9763;48.780;9.212;2022-12-18T21:41:36;0.40;76.70
19258;DHT22;9763;48.780;9.212;2022-12-18T21:45:18;0.30;77.00
19258;DHT22;9763;48.780;9.212;2022-12-18T21:48:41;0.30;76.80
19258;DHT22;9763;48.780;9.212;2022-12-18T21:52:06;0.40;77.10
19258;DHT22;9763;48.780;9.212;2022-12-18T21:55:30;0.40;77.00
19258;DHT22;9763;48.780;9.212;2022-12-18T21:58:53;0.50;77.10
19258;DHT22;9763;48.780;9.212;2022-12-18T22:02:20;0.50;77.00
19258;DHT22;9763;48.780;9.212;2022-12-18T22:05:44;0.50;77.00
19258;DHT22;9763;48.780;9.212;2022-12-18T22:09:15;0.50;77.00
19258;DHT22;9763;48.780;9.212;2022-12-18T22:12:40;0.50;77.10
19258;DHT22;9763;48.780;9.212;2022-12-18T22:16:06;0.50;77.00
19258;DHT22;9763;48.780;9.212;2022-12-18T22:19:30;0.50;76.90
19258;DHT22;9763;48.780;9.212;2022-12-18T22:22:59;0.50;76.80
19258;DHT22;9763;48.780;9.212;2022-12-18T22:26:30;0.50;76.70
19258;DHT22;9763;48.780;9.212;2022-12-18T22:30:01;0.50;76.80